M I D A S
Marine Information and Data Acquisition System
Tripno 1592 of the Zeeleeuw from 2008-10-21 08:12:37 to 2008-10-21 09:31:44
Back to CruiseResearch ActivitiesStationsMapUnderway DataData graphs

EquipmentUnitsComment
TimeDGPSUTC
LatitudeDGPSDM.mWGS84
LongitudeDGPSDM.mWGS84
TemperatureSBE03/SBE38deg celciusITS90
ConductivitySBE21S/mITS90
SalinitySBE21 Practical Salinity Units
ChlorophylAChelsea fluorimeterg/lCalibrated in Aceton
Missing or incorrect values are displayed as -999
Sea surface data collected by the RV Zeeleeuw from 2008-10-21 08:12:37 to 2008-10-21 09:31:44
Time Latitude Longitude Temperature Conductivity Salinity ChlorophylA
2008-10-21 08:12:50 51°13.624 2°56.048 -999 -999 -999 -999
2008-10-21 08:13:00 51°13.624 2°56.048 -999 -999 -999 -999
2008-10-21 08:13:10 51°13.624 2°56.049 -999 -999 -999 -999
2008-10-21 08:13:20 51°13.624 2°56.049 -999 -999 -999 -999
2008-10-21 08:13:30 51°13.624 2°56.049 -999 -999 -999 -999
2008-10-21 08:13:40 51°13.624 2°56.049 -999 -999 -999 -999
2008-10-21 08:13:50 51°13.624 2°56.048 -999 -999 -999 -999
2008-10-21 08:14:00 51°13.624 2°56.048 -999 -999 -999 -999
2008-10-21 08:14:10 51°13.624 2°56.048 -999 -999 -999 -999
2008-10-21 08:14:20 51°13.624 2°56.048 -999 -999 -999 -999
2008-10-21 08:14:30 51°13.623 2°56.048 -999 -999 -999 -999
2008-10-21 08:14:40 51°13.623 2°56.048 -999 -999 -999 -999
2008-10-21 08:14:50 51°13.623 2°56.048 -999 -999 -999 -999
2008-10-21 08:15:00 51°13.623 2°56.048 -999 -999 -999 -999
2008-10-21 08:15:10 51°13.623 2°56.047 -999 -999 -999 -999
2008-10-21 08:15:20 51°13.625 2°56.042 -999 -999 -999 -999
2008-10-21 08:15:30 51°13.628 2°56.034 -999 -999 -999 -999
2008-10-21 08:15:40 51°13.631 2°56.023 -999 -999 -999 -999
2008-10-21 08:15:50 51°13.635 2°56.011 -999 -999 -999 -999
2008-10-21 08:16:00 51°13.639 2°55.997 -999 -999 -999 -999
2008-10-21 08:16:10 51°13.643 2°55.982 -999 -999 -999 -999
2008-10-21 08:16:20 51°13.647 2°55.966 -999 -999 -999 -999
2008-10-21 08:16:30 51°13.652 2°55.949 -999 -999 -999 -999
2008-10-21 08:16:40 51°13.657 2°55.931 -999 -999 -999 -999
2008-10-21 08:16:50 51°13.662 2°55.911 -999 -999 -999 -999
2008-10-21 08:17:00 51°13.667 2°55.894 -999 -999 -999 -999
2008-10-21 08:17:10 51°13.673 2°55.876 -999 -999 -999 -999
2008-10-21 08:17:20 51°13.677 2°55.859 -999 -999 -999 -999
2008-10-21 08:17:30 51°13.682 2°55.843 -999 -999 -999 -999
2008-10-21 08:17:40 51°13.686 2°55.828 -999 -999 -999 -999
2008-10-21 08:17:50 51°13.69 2°55.813 -999 -999 -999 -999
2008-10-21 08:18:00 51°13.692 2°55.799 -999 -999 -999 -999
2008-10-21 08:18:10 51°13.695 2°55.786 -999 -999 -999 -999
2008-10-21 08:18:20 51°13.696 2°55.774 -999 -999 -999 -999
2008-10-21 08:18:30 51°13.698 2°55.763 -999 -999 -999 -999
2008-10-21 08:18:40 51°13.698 2°55.753 -999 -999 -999 -999
2008-10-21 08:18:50 51°13.698 2°55.744 -999 -999 -999 -999
2008-10-21 08:19:00 51°13.698 2°55.737 -999 -999 -999 -999
2008-10-21 08:19:10 51°13.698 2°55.731 -999 -999 -999 -999
2008-10-21 08:19:20 51°13.698 2°55.727 -999 -999 -999 -999
2008-10-21 08:19:30 51°13.698 2°55.723 -999 -999 -999 -999
2008-10-21 08:19:40 51°13.699 2°55.721 -999 -999 -999 -999
2008-10-21 08:19:50 51°13.7 2°55.72 -999 -999 -999 -999
2008-10-21 08:20:00 51°13.701 2°55.72 -999 -999 -999 -999
2008-10-21 08:20:10 51°13.703 2°55.721 -999 -999 -999 -999
2008-10-21 08:20:20 51°13.707 2°55.722 -999 -999 -999 -999
2008-10-21 08:20:30 51°13.711 2°55.722 -999 -999 -999 -999
2008-10-21 08:20:40 51°13.716 2°55.721 -999 -999 -999 -999
2008-10-21 08:20:50 51°13.723 2°55.719 -999 -999 -999 -999
2008-10-21 08:21:00 51°13.731 2°55.714 -999 -999 -999 -999
2008-10-21 08:21:10 51°13.742 2°55.707 -999 -999 -999 -999
2008-10-21 08:21:20 51°13.754 2°55.696 -999 -999 -999 -999
2008-10-21 08:21:30 51°13.769 2°55.685 -999 -999 -999 -999
2008-10-21 08:21:40 51°13.785 2°55.671 -999 -999 -999 -999
2008-10-21 08:21:50 51°13.802 2°55.657 -999 -999 -999 -999
2008-10-21 08:22:00 51°13.822 2°55.641 -999 -999 -999 -999
2008-10-21 08:22:10 51°13.839 2°55.629 -999 -999 -999 -999
2008-10-21 08:22:20 51°13.858 2°55.614 -999 -999 -999 -999
2008-10-21 08:22:30 51°13.88 2°55.597 -999 -999 -999 -999
2008-10-21 08:22:40 51°13.898 2°55.583 -999 -999 -999 -999
2008-10-21 08:22:50 51°13.918 2°55.567 -999 -999 -999 -999
2008-10-21 08:23:00 51°13.939 2°55.551 -999 -999 -999 -999
2008-10-21 08:23:10 51°13.959 2°55.535 -999 -999 -999 -999
2008-10-21 08:23:20 51°13.98 2°55.52 -999 -999 -999 -999
2008-10-21 08:23:30 51°14.001 2°55.505 -999 -999 -999 -999
2008-10-21 08:23:40 51°14.021 2°55.489 -999 -999 -999 -999
2008-10-21 08:23:50 51°14.042 2°55.473 -999 -999 -999 -999
2008-10-21 08:24:00 51°14.062 2°55.456 -999 -999 -999 -999
2008-10-21 08:24:10 51°14.085 2°55.439 -999 -999 -999 -999
2008-10-21 08:24:20 51°14.103 2°55.425 -999 -999 -999 -999
2008-10-21 08:24:30 51°14.124 2°55.409 -999 -999 -999 -999
2008-10-21 08:24:40 51°14.146 2°55.391 -999 -999 -999 -999
2008-10-21 08:24:50 51°14.166 2°55.372 -999 -999 -999 -999
2008-10-21 08:25:00 51°14.183 2°55.355 -999 -999 -999 -999
2008-10-21 08:25:10 51°14.202 2°55.334 -999 -999 -999 -999
2008-10-21 08:25:20 51°14.221 2°55.313 -999 -999 -999 -999
2008-10-21 08:25:30 51°14.24 2°55.286 -999 -999 -999 -999
2008-10-21 08:25:40 51°14.255 2°55.263 -999 -999 -999 -999
2008-10-21 08:25:50 51°14.272 2°55.237 -999 -999 -999 -999
2008-10-21 08:26:00 51°14.288 2°55.21 -999 -999 -999 -999
2008-10-21 08:26:10 51°14.304 2°55.182 -999 -999 -999 -999
2008-10-21 08:26:20 51°14.319 2°55.155 -999 -999 -999 -999
2008-10-21 08:26:30 51°14.337 2°55.124 -999 -999 -999 -999
2008-10-21 08:26:40 51°14.35 2°55.099 -999 -999 -999 -999
2008-10-21 08:26:50 51°14.365 2°55.071 -999 -999 -999 -999
2008-10-21 08:27:00 51°14.38 2°55.039 -999 -999 -999 -999
2008-10-21 08:27:10 51°14.391 2°55.012 -999 -999 -999 -999
2008-10-21 08:27:20 51°14.402 2°54.979 -999 -999 -999 -999
2008-10-21 08:27:30 51°14.409 2°54.95 -999 -999 -999 -999
2008-10-21 08:27:40 51°14.415 2°54.917 -999 -999 -999 -999
2008-10-21 08:27:50 51°14.418 2°54.88 -999 -999 -999 -999
2008-10-21 08:28:00 51°14.419 2°54.85 -999 -999 -999 -999
2008-10-21 08:28:10 51°14.419 2°54.817 -999 -999 -999 -999
2008-10-21 08:28:20 51°14.416 2°54.784 -999 -999 -999 -999
2008-10-21 08:28:30 51°14.412 2°54.751 -999 -999 -999 -999
2008-10-21 08:28:40 51°14.406 2°54.719 -999 -999 -999 -999
2008-10-21 08:28:50 51°14.4 2°54.687 -999 -999 -999 -999
2008-10-21 08:29:00 51°14.392 2°54.655 -999 -999 -999 -999
2008-10-21 08:29:10 51°14.383 2°54.62 -999 -999 -999 -999
2008-10-21 08:29:20 51°14.376 2°54.592 -999 -999 -999 -999
2008-10-21 08:29:30 51°14.368 2°54.56 -999 -999 -999 -999
2008-10-21 08:29:40 51°14.358 2°54.526 -999 -999 -999 -999
2008-10-21 08:29:50 51°14.35 2°54.494 -999 -999 -999 -999
2008-10-21 08:30:00 51°14.343 2°54.465 -999 -999 -999 -999
2008-10-21 08:30:10 51°14.335 2°54.434 -999 -999 -999 -999
2008-10-21 08:30:20 51°14.325 2°54.4 -999 -999 -999 -999
2008-10-21 08:30:30 51°14.318 2°54.368 -999 -999 -999 -999
2008-10-21 08:30:40 51°14.311 2°54.339 -999 -999 -999 -999
2008-10-21 08:30:50 51°14.302 2°54.308 -999 -999 -999 -999
2008-10-21 08:31:00 51°14.293 2°54.274 -999 -999 -999 -999
2008-10-21 08:31:10 51°14.286 2°54.242 -999 -999 -999 -999
2008-10-21 08:31:20 51°14.278 2°54.213 -999 -999 -999 -999
2008-10-21 08:31:30 51°14.27 2°54.182 -999 -999 -999 -999
2008-10-21 08:31:40 51°14.261 2°54.147 -999 -999 -999 -999
2008-10-21 08:31:50 51°14.253 2°54.116 -999 -999 -999 -999
2008-10-21 08:32:00 51°14.245 2°54.084 -999 -999 -999 -999
2008-10-21 08:32:10 51°14.237 2°54.054 -999 -999 -999 -999
2008-10-21 08:32:20 51°14.23 2°54.026 -999 -999 -999 -999
2008-10-21 08:32:30 51°14.221 2°53.996 -999 -999 -999 -999
2008-10-21 08:32:40 51°14.21 2°53.964 -999 -999 -999 -999
2008-10-21 08:32:50 51°14.2 2°53.934 -999 -999 -999 -999
2008-10-21 08:33:00 51°14.19 2°53.904 -999 -999 -999 -999
2008-10-21 08:33:10 51°14.18 2°53.875 -999 -999 -999 -999
2008-10-21 08:33:20 51°14.171 2°53.848 -999 -999 -999 -999
2008-10-21 08:33:30 51°14.16 2°53.819 -999 -999 -999 -999
2008-10-21 08:33:40 51°14.148 2°53.787 -999 -999 -999 -999
2008-10-21 08:33:50 51°14.138 2°53.757 -999 -999 -999 -999
2008-10-21 08:34:00 51°14.127 2°53.728 -999 -999 -999 -999
2008-10-21 08:34:10 51°14.117 2°53.698 -999 -999 -999 -999
2008-10-21 08:34:20 51°14.107 2°53.672 -999 -999 -999 -999
2008-10-21 08:34:30 51°14.095 2°53.641 -999 -999 -999 -999
2008-10-21 08:34:40 51°14.085 2°53.613 -999 -999 -999 -999
2008-10-21 08:34:50 51°14.075 2°53.588 -999 -999 -999 -999
2008-10-21 08:35:00 51°14.065 2°53.559 -999 -999 -999 -999
2008-10-21 08:35:10 51°14.054 2°53.527 -999 -999 -999 -999
2008-10-21 08:35:20 51°14.043 2°53.498 -999 -999 -999 -999
2008-10-21 08:35:30 51°14.033 2°53.468 -999 -999 -999 -999
2008-10-21 08:35:40 51°14.023 2°53.438 -999 -999 -999 -999
2008-10-21 08:35:50 51°14.013 2°53.408 -999 -999 -999 -999
2008-10-21 08:36:00 51°14.003 2°53.378 -999 -999 -999 -999
2008-10-21 08:36:10 51°13.992 2°53.348 -999 -999 -999 -999
2008-10-21 08:36:20 51°13.982 2°53.318 -999 -999 -999 -999
2008-10-21 08:36:30 51°13.971 2°53.288 -999 -999 -999 -999
2008-10-21 08:36:40 51°13.961 2°53.258 -999 -999 -999 -999
2008-10-21 08:36:50 51°13.951 2°53.228 -999 -999 -999 -999
2008-10-21 08:37:00 51°13.94 2°53.198 -999 -999 -999 -999
2008-10-21 08:37:10 51°13.929 2°53.169 -999 -999 -999 -999
2008-10-21 08:37:20 51°13.919 2°53.139 -999 -999 -999 -999
2008-10-21 08:37:30 51°13.908 2°53.109 -999 -999 -999 -999
2008-10-21 08:37:40 51°13.898 2°53.083 -999 -999 -999 -999
2008-10-21 08:37:50 51°13.887 2°53.051 -999 -999 -999 -999
2008-10-21 08:38:00 51°13.876 2°53.022 -999 -999 -999 -999
2008-10-21 08:38:10 51°13.864 2°52.991 -999 -999 -999 -999
2008-10-21 08:38:20 51°13.854 2°52.963 -999 -999 -999 -999
2008-10-21 08:38:30 51°13.845 2°52.937 -999 -999 -999 -999
2008-10-21 08:38:40 51°13.834 2°52.904 -999 -999 -999 -999
2008-10-21 08:38:50 51°13.823 2°52.875 -999 -999 -999 -999
2008-10-21 08:39:00 51°13.814 2°52.848 -999 -999 -999 -999
2008-10-21 08:39:10 51°13.802 2°52.817 -999 -999 -999 -999
2008-10-21 08:39:20 51°13.792 2°52.787 -999 -999 -999 -999
2008-10-21 08:39:30 51°13.782 2°52.759 -999 -999 -999 -999
2008-10-21 08:39:40 51°13.771 2°52.73 -999 -999 -999 -999
2008-10-21 08:39:50 51°13.761 2°52.701 -999 -999 -999 -999
2008-10-21 08:40:00 51°13.75 2°52.672 -999 -999 -999 -999
2008-10-21 08:40:10 51°13.74 2°52.644 -999 -999 -999 -999
2008-10-21 08:40:20 51°13.73 2°52.614 -999 -999 -999 -999
2008-10-21 08:40:30 51°13.72 2°52.585 -999 -999 -999 -999
2008-10-21 08:40:40 51°13.71 2°52.556 -999 -999 -999 -999
2008-10-21 08:40:50 51°13.7 2°52.526 -999 -999 -999 -999
2008-10-21 08:41:00 51°13.691 2°52.496 -999 -999 -999 -999
2008-10-21 08:41:10 51°13.681 2°52.466 -999 -999 -999 -999
2008-10-21 08:41:20 51°13.671 2°52.435 -999 -999 -999 -999
2008-10-21 08:41:30 51°13.662 2°52.406 -999 -999 -999 -999
2008-10-21 08:41:40 51°13.653 2°52.379 -999 -999 -999 -999
2008-10-21 08:41:50 51°13.642 2°52.346 -999 -999 -999 -999
2008-10-21 08:42:00 51°13.632 2°52.315 -999 -999 -999 -999
2008-10-21 08:42:10 51°13.622 2°52.284 -999 -999 -999 -999
2008-10-21 08:42:20 51°13.613 2°52.254 -999 -999 -999 -999
2008-10-21 08:42:30 51°13.604 2°52.222 -999 -999 -999 -999
2008-10-21 08:42:40 51°13.595 2°52.191 -999 -999 -999 -999
2008-10-21 08:42:50 51°13.586 2°52.16 -999 -999 -999 -999
2008-10-21 08:43:00 51°13.576 2°52.13 -999 -999 -999 -999
2008-10-21 08:43:10 51°13.567 2°52.101 -999 -999 -999 -999
2008-10-21 08:43:20 51°13.558 2°52.073 -999 -999 -999 -999
2008-10-21 08:43:30 51°13.549 2°52.044 -999 -999 -999 -999
2008-10-21 08:43:40 51°13.54 2°52.015 -999 -999 -999 -999
2008-10-21 08:43:50 51°13.531 2°51.985 -999 -999 -999 -999
2008-10-21 08:44:00 51°13.523 2°51.955 -999 -999 -999 -999
2008-10-21 08:44:10 51°13.513 2°51.927 -999 -999 -999 -999
2008-10-21 08:44:20 51°13.5 2°51.908 -999 -999 -999 -999
2008-10-21 08:44:30 51°13.486 2°51.896 -999 -999 -999 -999
2008-10-21 08:44:40 51°13.471 2°51.892 -999 -999 -999 -999
2008-10-21 08:44:50 51°13.456 2°51.896 -999 -999 -999 -999
2008-10-21 08:45:00 51°13.444 2°51.907 -999 -999 -999 -999
2008-10-21 08:45:10 51°13.436 2°51.924 -999 -999 -999 -999
2008-10-21 08:45:20 51°13.431 2°51.943 -999 -999 -999 -999
2008-10-21 08:45:30 51°13.43 2°51.964 -999 -999 -999 -999
2008-10-21 08:45:40 51°13.434 2°51.984 -999 -999 -999 -999
2008-10-21 08:45:50 51°13.441 2°52.003 -999 -999 -999 -999
2008-10-21 08:46:00 51°13.451 2°52.024 -999 -999 -999 -999
2008-10-21 08:46:10 51°13.462 2°52.049 -999 -999 -999 -999
2008-10-21 08:46:20 51°13.474 2°52.076 -999 -999 -999 -999
2008-10-21 08:46:30 51°13.487 2°52.106 -999 -999 -999 -999
2008-10-21 08:46:40 51°13.5 2°52.138 -999 -999 -999 -999
2008-10-21 08:46:50 51°13.513 2°52.169 -999 -999 -999 -999
2008-10-21 08:47:00 51°13.526 2°52.2 -999 -999 -999 -999
2008-10-21 08:47:10 51°13.539 2°52.231 -999 -999 -999 -999
2008-10-21 08:47:20 51°13.552 2°52.261 -999 -999 -999 -999
2008-10-21 08:47:30 51°13.565 2°52.292 -999 -999 -999 -999
2008-10-21 08:47:40 51°13.577 2°52.322 -999 -999 -999 -999
2008-10-21 08:47:50 51°13.59 2°52.352 -999 -999 -999 -999
2008-10-21 08:48:00 51°13.602 2°52.381 -999 -999 -999 -999
2008-10-21 08:48:10 51°13.615 2°52.411 -999 -999 -999 -999
2008-10-21 08:48:20 51°13.627 2°52.44 -999 -999 -999 -999
2008-10-21 08:48:30 51°13.639 2°52.47 -999 -999 -999 -999
2008-10-21 08:48:40 51°13.651 2°52.499 -999 -999 -999 -999
2008-10-21 08:48:50 51°13.664 2°52.528 -999 -999 -999 -999
2008-10-21 08:49:00 51°13.677 2°52.556 -999 -999 -999 -999
2008-10-21 08:49:10 51°13.69 2°52.584 -999 -999 -999 -999
2008-10-21 08:49:20 51°13.702 2°52.613 -999 -999 -999 -999
2008-10-21 08:49:30 51°13.716 2°52.64 -999 -999 -999 -999
2008-10-21 08:49:40 51°13.729 2°52.668 -999 -999 -999 -999
2008-10-21 08:49:50 51°13.742 2°52.696 -999 -999 -999 -999
2008-10-21 08:50:00 51°13.755 2°52.725 -999 -999 -999 -999
2008-10-21 08:50:10 51°13.767 2°52.754 -999 -999 -999 -999
2008-10-21 08:50:20 51°13.779 2°52.783 -999 -999 -999 -999
2008-10-21 08:50:30 51°13.792 2°52.812 -999 -999 -999 -999
2008-10-21 08:50:40 51°13.805 2°52.84 -999 -999 -999 -999
2008-10-21 08:50:50 51°13.817 2°52.868 -999 -999 -999 -999
2008-10-21 08:51:00 51°13.83 2°52.896 -999 -999 -999 -999
2008-10-21 08:51:10 51°13.844 2°52.925 -999 -999 -999 -999
2008-10-21 08:51:20 51°13.857 2°52.953 -999 -999 -999 -999
2008-10-21 08:51:30 51°13.87 2°52.981 -999 -999 -999 -999
2008-10-21 08:51:40 51°13.883 2°53.01 -999 -999 -999 -999
2008-10-21 08:51:50 51°13.896 2°53.038 -999 -999 -999 -999
2008-10-21 08:52:00 51°13.909 2°53.067 -999 -999 -999 -999
2008-10-21 08:52:10 51°13.922 2°53.095 -999 -999 -999 -999
2008-10-21 08:52:20 51°13.936 2°53.123 -999 -999 -999 -999
2008-10-21 08:52:30 51°13.949 2°53.151 -999 -999 -999 -999
2008-10-21 08:52:40 51°13.962 2°53.18 -999 -999 -999 -999
2008-10-21 08:52:50 51°13.975 2°53.208 -999 -999 -999 -999
2008-10-21 08:53:00 51°13.988 2°53.237 -999 -999 -999 -999
2008-10-21 08:53:10 51°14 2°53.265 -999 -999 -999 -999
2008-10-21 08:53:20 51°14.013 2°53.293 -999 -999 -999 -999
2008-10-21 08:53:30 51°14.026 2°53.321 -999 -999 -999 -999
2008-10-21 08:53:40 51°14.039 2°53.35 -999 -999 -999 -999
2008-10-21 08:53:50 51°14.052 2°53.378 -999 -999 -999 -999
2008-10-21 08:54:00 51°14.065 2°53.407 -999 -999 -999 -999
2008-10-21 08:54:10 51°14.078 2°53.435 -999 -999 -999 -999
2008-10-21 08:54:20 51°14.091 2°53.463 -999 -999 -999 -999
2008-10-21 08:54:30 51°14.104 2°53.492 -999 -999 -999 -999
2008-10-21 08:54:40 51°14.117 2°53.52 -999 -999 -999 -999
2008-10-21 08:54:50 51°14.129 2°53.549 -999 -999 -999 -999
2008-10-21 08:55:00 51°14.143 2°53.577 -999 -999 -999 -999
2008-10-21 08:55:10 51°14.155 2°53.605 -999 -999 -999 -999
2008-10-21 08:55:20 51°14.168 2°53.634 -999 -999 -999 -999
2008-10-21 08:55:30 51°14.181 2°53.662 -999 -999 -999 -999
2008-10-21 08:55:40 51°14.194 2°53.691 -999 -999 -999 -999
2008-10-21 08:55:50 51°14.206 2°53.72 -999 -999 -999 -999
2008-10-21 08:56:00 51°14.22 2°53.747 -999 -999 -999 -999
2008-10-21 08:56:10 51°14.235 2°53.772 -999 -999 -999 -999
2008-10-21 08:56:20 51°14.25 2°53.795 -999 -999 -999 -999
2008-10-21 08:56:30 51°14.266 2°53.818 -999 -999 -999 -999
2008-10-21 08:56:40 51°14.283 2°53.84 -999 -999 -999 -999
2008-10-21 08:56:50 51°14.301 2°53.861 -999 -999 -999 -999
2008-10-21 08:57:00 51°14.318 2°53.883 -999 -999 -999 -999
2008-10-21 08:57:10 51°14.335 2°53.904 -999 -999 -999 -999
2008-10-21 08:57:20 51°14.352 2°53.925 -999 -999 -999 -999
2008-10-21 08:57:30 51°14.37 2°53.945 -999 -999 -999 -999
2008-10-21 08:57:40 51°14.388 2°53.966 -999 -999 -999 -999
2008-10-21 08:57:50 51°14.405 2°53.987 -999 -999 -999 -999
2008-10-21 08:58:00 51°14.423 2°54.008 -999 -999 -999 -999
2008-10-21 08:58:10 51°14.44 2°54.029 -999 -999 -999 -999
2008-10-21 08:58:20 51°14.458 2°54.05 -999 -999 -999 -999
2008-10-21 08:58:30 51°14.476 2°54.07 -999 -999 -999 -999
2008-10-21 08:58:40 51°14.493 2°54.091 -999 -999 -999 -999
2008-10-21 08:58:50 51°14.51 2°54.112 -999 -999 -999 -999
2008-10-21 08:59:00 51°14.528 2°54.132 -999 -999 -999 -999
2008-10-21 08:59:10 51°14.546 2°54.153 -999 -999 -999 -999
2008-10-21 08:59:20 51°14.564 2°54.174 -999 -999 -999 -999
2008-10-21 08:59:30 51°14.582 2°54.194 -999 -999 -999 -999
2008-10-21 08:59:40 51°14.6 2°54.216 -999 -999 -999 -999
2008-10-21 08:59:50 51°14.618 2°54.238 -999 -999 -999 -999
2008-10-21 09:00:00 51°14.636 2°54.259 -999 -999 -999 -999
2008-10-21 09:00:10 51°14.653 2°54.281 -999 -999 -999 -999
2008-10-21 09:00:20 51°14.672 2°54.302 -999 -999 -999 -999
2008-10-21 09:00:30 51°14.689 2°54.324 -999 -999 -999 -999
2008-10-21 09:00:40 51°14.708 2°54.345 -999 -999 -999 -999
2008-10-21 09:00:50 51°14.725 2°54.367 -999 -999 -999 -999
2008-10-21 09:01:00 51°14.743 2°54.389 -999 -999 -999 -999
2008-10-21 09:01:10 51°14.761 2°54.41 -999 -999 -999 -999
2008-10-21 09:01:20 51°14.779 2°54.431 -999 -999 -999 -999
2008-10-21 09:01:30 51°14.798 2°54.45 -999 -999 -999 -999
2008-10-21 09:01:40 51°14.818 2°54.466 -999 -999 -999 -999
2008-10-21 09:01:50 51°14.837 2°54.481 -999 -999 -999 -999
2008-10-21 09:02:00 51°14.858 2°54.494 -999 -999 -999 -999
2008-10-21 09:02:10 51°14.878 2°54.507 -999 -999 -999 -999
2008-10-21 09:02:20 51°14.899 2°54.519 -999 -999 -999 -999
2008-10-21 09:02:30 51°14.92 2°54.532 -999 -999 -999 -999
2008-10-21 09:02:40 51°14.941 2°54.543 -999 -999 -999 -999
2008-10-21 09:02:50 51°14.962 2°54.555 -999 -999 -999 -999
2008-10-21 09:03:00 51°14.983 2°54.569 -999 -999 -999 -999
2008-10-21 09:03:10 51°15.004 2°54.582 -999 -999 -999 -999
2008-10-21 09:03:20 51°15.024 2°54.597 -999 -999 -999 -999
2008-10-21 09:03:30 51°15.045 2°54.612 -999 -999 -999 -999
2008-10-21 09:03:40 51°15.065 2°54.628 -999 -999 -999 -999
2008-10-21 09:03:50 51°15.085 2°54.644 -999 -999 -999 -999
2008-10-21 09:04:00 51°15.106 2°54.659 -999 -999 -999 -999
2008-10-21 09:04:10 51°15.126 2°54.674 -999 -999 -999 -999
2008-10-21 09:04:20 51°15.146 2°54.69 -999 -999 -999 -999
2008-10-21 09:04:30 51°15.167 2°54.707 -999 -999 -999 -999
2008-10-21 09:04:40 51°15.187 2°54.723 -999 -999 -999 -999
2008-10-21 09:04:50 51°15.208 2°54.739 -999 -999 -999 -999
2008-10-21 09:05:00 51°15.228 2°54.755 -999 -999 -999 -999
2008-10-21 09:05:10 51°15.248 2°54.77 -999 -999 -999 -999
2008-10-21 09:05:20 51°15.269 2°54.786 -999 -999 -999 -999
2008-10-21 09:05:30 51°15.289 2°54.803 -999 -999 -999 -999
2008-10-21 09:05:40 51°15.31 2°54.818 -999 -999 -999 -999
2008-10-21 09:05:50 51°15.33 2°54.835 -999 -999 -999 -999
2008-10-21 09:06:00 51°15.35 2°54.85 -999 -999 -999 -999
2008-10-21 09:06:10 51°15.37 2°54.866 -999 -999 -999 -999
2008-10-21 09:06:20 51°15.391 2°54.882 -999 -999 -999 -999
2008-10-21 09:06:30 51°15.411 2°54.898 -999 -999 -999 -999
2008-10-21 09:06:40 51°15.432 2°54.914 -999 -999 -999 -999
2008-10-21 09:06:50 51°15.452 2°54.929 -999 -999 -999 -999
2008-10-21 09:07:00 51°15.472 2°54.945 -999 -999 -999 -999
2008-10-21 09:07:10 51°15.493 2°54.962 -999 -999 -999 -999
2008-10-21 09:07:20 51°15.513 2°54.978 -999 -999 -999 -999
2008-10-21 09:07:30 51°15.533 2°54.994 -999 -999 -999 -999
2008-10-21 09:07:40 51°15.554 2°55.011 -999 -999 -999 -999
2008-10-21 09:07:50 51°15.574 2°55.027 -999 -999 -999 -999
2008-10-21 09:08:00 51°15.594 2°55.043 -999 -999 -999 -999
2008-10-21 09:08:10 51°15.614 2°55.061 -999 -999 -999 -999
2008-10-21 09:08:20 51°15.635 2°55.077 -999 -999 -999 -999
2008-10-21 09:08:30 51°15.655 2°55.092 -999 -999 -999 -999
2008-10-21 09:08:40 51°15.675 2°55.108 -999 -999 -999 -999
2008-10-21 09:08:50 51°15.695 2°55.124 -999 -999 -999 -999
2008-10-21 09:09:00 51°15.716 2°55.139 -999 -999 -999 -999
2008-10-21 09:09:10 51°15.736 2°55.155 -999 -999 -999 -999
2008-10-21 09:09:20 51°15.755 2°55.171 -999 -999 -999 -999
2008-10-21 09:09:30 51°15.775 2°55.187 -999 -999 -999 -999
2008-10-21 09:09:40 51°15.794 2°55.203 -999 -999 -999 -999
2008-10-21 09:09:50 51°15.814 2°55.218 -999 -999 -999 -999
2008-10-21 09:10:00 51°15.834 2°55.234 -999 -999 -999 -999
2008-10-21 09:10:10 51°15.853 2°55.25 -999 -999 -999 -999
2008-10-21 09:10:20 51°15.873 2°55.265 -999 -999 -999 -999
2008-10-21 09:10:30 51°15.892 2°55.281 -999 -999 -999 -999
2008-10-21 09:10:40 51°15.912 2°55.296 -999 -999 -999 -999
2008-10-21 09:10:50 51°15.931 2°55.311 -999 -999 -999 -999
2008-10-21 09:11:00 51°15.951 2°55.326 -999 -999 -999 -999
2008-10-21 09:11:10 51°15.971 2°55.341 -999 -999 -999 -999
2008-10-21 09:11:20 51°15.99 2°55.356 -999 -999 -999 -999
2008-10-21 09:11:30 51°16.01 2°55.372 -999 -999 -999 -999
2008-10-21 09:11:40 51°16.029 2°55.388 -999 -999 -999 -999
2008-10-21 09:11:50 51°16.049 2°55.402 -999 -999 -999 -999
2008-10-21 09:12:00 51°16.068 2°55.417 -999 -999 -999 -999
2008-10-21 09:12:10 51°16.087 2°55.432 -999 -999 -999 -999
2008-10-21 09:12:20 51°16.107 2°55.447 -999 -999 -999 -999
2008-10-21 09:12:30 51°16.126 2°55.463 -999 -999 -999 -999
2008-10-21 09:12:40 51°16.146 2°55.478 -999 -999 -999 -999
2008-10-21 09:12:50 51°16.165 2°55.494 -999 -999 -999 -999
2008-10-21 09:13:00 51°16.184 2°55.509 -999 -999 -999 -999
2008-10-21 09:13:10 51°16.204 2°55.523 -999 -999 -999 -999
2008-10-21 09:13:20 51°16.223 2°55.539 -999 -999 -999 -999
2008-10-21 09:13:30 51°16.242 2°55.554 -999 -999 -999 -999
2008-10-21 09:13:40 51°16.261 2°55.57 -999 -999 -999 -999
2008-10-21 09:13:50 51°16.28 2°55.586 -999 -999 -999 -999
2008-10-21 09:14:00 51°16.298 2°55.605 -999 -999 -999 -999
2008-10-21 09:14:10 51°16.314 2°55.627 -999 -999 -999 -999
2008-10-21 09:14:20 51°16.33 2°55.649 -999 -999 -999 -999
2008-10-21 09:14:30 51°16.346 2°55.672 -999 -999 -999 -999
2008-10-21 09:14:40 51°16.362 2°55.686 -999 -999 -999 -999
2008-10-21 09:14:50 51°16.379 2°55.693 -999 -999 -999 -999
2008-10-21 09:15:00 51°16.395 2°55.689 -999 -999 -999 -999
2008-10-21 09:15:10 51°16.41 2°55.678 -999 -999 -999 -999
2008-10-21 09:15:20 51°16.421 2°55.662 -999 -999 -999 -999
2008-10-21 09:15:30 51°16.428 2°55.641 -999 -999 -999 -999
2008-10-21 09:15:40 51°16.431 2°55.618 -999 -999 -999 -999
2008-10-21 09:15:50 51°16.43 2°55.594 -999 -999 -999 -999
2008-10-21 09:16:00 51°16.424 2°55.573 -999 -999 -999 -999
2008-10-21 09:16:10 51°16.414 2°55.557 -999 -999 -999 -999
2008-10-21 09:16:20 51°16.401 2°55.548 -999 -999 -999 -999
2008-10-21 09:16:30 51°16.385 2°55.544 -999 -999 -999 -999
2008-10-21 09:16:40 51°16.362 2°55.539 -999 -999 -999 -999
2008-10-21 09:16:50 51°16.339 2°55.529 -999 -999 -999 -999
2008-10-21 09:17:00 51°16.316 2°55.512 -999 -999 -999 -999
2008-10-21 09:17:10 51°16.294 2°55.492 -999 -999 -999 -999
2008-10-21 09:17:20 51°16.273 2°55.467 -999 -999 -999 -999
2008-10-21 09:17:30 51°16.25 2°55.443 -999 -999 -999 -999
2008-10-21 09:17:40 51°16.227 2°55.419 -999 -999 -999 -999
2008-10-21 09:17:50 51°16.204 2°55.393 -999 -999 -999 -999
2008-10-21 09:18:00 51°16.182 2°55.365 -999 -999 -999 -999
2008-10-21 09:18:10 51°16.161 2°55.337 -999 -999 -999 -999
2008-10-21 09:18:20 51°16.141 2°55.309 -999 -999 -999 -999
2008-10-21 09:18:30 51°16.123 2°55.279 -999 -999 -999 -999
2008-10-21 09:18:40 51°16.106 2°55.251 -999 -999 -999 -999
2008-10-21 09:18:50 51°16.089 2°55.226 -999 -999 -999 -999
2008-10-21 09:19:00 51°16.072 2°55.2 -999 -999 -999 -999
2008-10-21 09:19:10 51°16.057 2°55.176 -999 -999 -999 -999
2008-10-21 09:19:20 51°16.041 2°55.152 -999 -999 -999 -999
2008-10-21 09:19:30 51°16.026 2°55.128 -999 -999 -999 -999
2008-10-21 09:19:40 51°16.011 2°55.104 -999 -999 -999 -999
2008-10-21 09:19:50 51°15.996 2°55.082 -999 -999 -999 -999
2008-10-21 09:20:00 51°15.981 2°55.059 -999 -999 -999 -999
2008-10-21 09:20:10 51°15.965 2°55.038 -999 -999 -999 -999
2008-10-21 09:20:20 51°15.948 2°55.016 -999 -999 -999 -999
2008-10-21 09:20:30 51°15.932 2°54.994 -999 -999 -999 -999
2008-10-21 09:20:40 51°15.915 2°54.973 -999 -999 -999 -999
2008-10-21 09:20:50 51°15.898 2°54.953 -999 -999 -999 -999
2008-10-21 09:21:00 51°15.881 2°54.932 -999 -999 -999 -999
2008-10-21 09:21:10 51°15.865 2°54.91 -999 -999 -999 -999
2008-10-21 09:21:20 51°15.85 2°54.891 -999 -999 -999 -999
2008-10-21 09:21:30 51°15.831 2°54.867 -999 -999 -999 -999
2008-10-21 09:21:40 51°15.815 2°54.847 -999 -999 -999 -999
2008-10-21 09:21:50 51°15.798 2°54.827 -999 -999 -999 -999
2008-10-21 09:22:00 51°15.782 2°54.81 -999 -999 -999 -999
2008-10-21 09:22:10 51°15.763 2°54.789 -999 -999 -999 -999
2008-10-21 09:22:20 51°15.745 2°54.77 -999 -999 -999 -999
2008-10-21 09:22:30 51°15.727 2°54.752 -999 -999 -999 -999
2008-10-21 09:22:40 51°15.709 2°54.734 -999 -999 -999 -999
2008-10-21 09:22:50 51°15.691 2°54.718 -999 -999 -999 -999
2008-10-21 09:23:00 51°15.672 2°54.702 -999 -999 -999 -999
2008-10-21 09:23:10 51°15.654 2°54.687 -999 -999 -999 -999
2008-10-21 09:23:20 51°15.635 2°54.671 -999 -999 -999 -999
2008-10-21 09:23:30 51°15.617 2°54.658 -999 -999 -999 -999
2008-10-21 09:23:40 51°15.595 2°54.641 -999 -999 -999 -999
2008-10-21 09:23:50 51°15.575 2°54.627 -999 -999 -999 -999
2008-10-21 09:24:00 51°15.555 2°54.614 -999 -999 -999 -999
2008-10-21 09:24:10 51°15.537 2°54.603 -999 -999 -999 -999
2008-10-21 09:24:20 51°15.514 2°54.59 -999 -999 -999 -999
2008-10-21 09:24:30 51°15.493 2°54.579 -999 -999 -999 -999
2008-10-21 09:24:40 51°15.473 2°54.567 -999 -999 -999 -999
2008-10-21 09:24:50 51°15.452 2°54.557 -999 -999 -999 -999
2008-10-21 09:25:00 51°15.431 2°54.549 -999 -999 -999 -999
2008-10-21 09:25:10 51°15.411 2°54.547 -999 -999 -999 -999
2008-10-21 09:25:20 51°15.394 2°54.552 -999 -999 -999 -999
2008-10-21 09:25:30 51°15.378 2°54.566 -999 -999 -999 -999
2008-10-21 09:25:40 51°15.365 2°54.587 -999 -999 -999 -999
2008-10-21 09:25:50 51°15.354 2°54.61 -999 -999 -999 -999
2008-10-21 09:26:00 51°15.344 2°54.631 -999 -999 -999 -999
2008-10-21 09:26:10 51°15.329 2°54.65 -999 -999 -999 -999
2008-10-21 09:26:20 51°15.311 2°54.664 -999 -999 -999 -999
2008-10-21 09:26:30 51°15.291 2°54.67 -999 -999 -999 -999
2008-10-21 09:26:40 51°15.269 2°54.673 -999 -999 -999 -999
2008-10-21 09:26:50 51°15.245 2°54.676 -999 -999 -999 -999
2008-10-21 09:27:00 51°15.22 2°54.678 -999 -999 -999 -999
2008-10-21 09:27:10 51°15.19 2°54.68 -999 -999 -999 -999
2008-10-21 09:27:20 51°15.16 2°54.681 -999 -999 -999 -999
2008-10-21 09:27:30 51°15.126 2°54.681 -999 -999 -999 -999
2008-10-21 09:27:40 51°15.093 2°54.681 -999 -999 -999 -999
2008-10-21 09:27:50 51°15.064 2°54.68 -999 -999 -999 -999
2008-10-21 09:28:00 51°15.032 2°54.684 -999 -999 -999 -999
2008-10-21 09:28:10 51°14.995 2°54.687 -999 -999 -999 -999
2008-10-21 09:28:20 51°14.963 2°54.692 -999 -999 -999 -999
2008-10-21 09:28:30 51°14.93 2°54.693 -999 -999 -999 -999
2008-10-21 09:28:40 51°14.896 2°54.697 -999 -999 -999 -999
2008-10-21 09:28:50 51°14.867 2°54.699 -999 -999 -999 -999
2008-10-21 09:29:00 51°14.83 2°54.705 -999 -999 -999 -999
2008-10-21 09:29:10 51°14.797 2°54.711 -999 -999 -999 -999
2008-10-21 09:29:20 51°14.765 2°54.718 -999 -999 -999 -999
2008-10-21 09:29:30 51°14.736 2°54.728 -999 -999 -999 -999
2008-10-21 09:29:40 51°14.704 2°54.743 -999 -999 -999 -999
2008-10-21 09:29:50 51°14.67 2°54.76 -999 -999 -999 -999
2008-10-21 09:30:00 51°14.638 2°54.778 -999 -999 -999 -999
2008-10-21 09:30:10 51°14.608 2°54.8 -999 -999 -999 -999
2008-10-21 09:30:20 51°14.582 2°54.823 -999 -999 -999 -999
2008-10-21 09:30:30 51°14.554 2°54.849 -999 -999 -999 -999
2008-10-21 09:30:40 51°14.523 2°54.881 -999 -999 -999 -999
2008-10-21 09:30:50 51°14.496 2°54.909 -999 -999 -999 -999
2008-10-21 09:31:00 51°14.471 2°54.933 -999 -999 -999 -999
2008-10-21 09:31:10 51°14.442 2°54.967 -999 -999 -999 -999
2008-10-21 09:31:20 51°14.418 2°55.002 -999 -999 -999 -999
2008-10-21 09:31:30 51°14.395 2°55.039 -999 -999 -999 -999
2008-10-21 09:31:40 51°14.372 2°55.077 -999 -999 -999 -999